createdAt,value
2023-11-14T00:01:59.314Z,99.90
2023-11-14T00:04:27.201Z,99.90
2023-11-14T00:06:54.345Z,99.90
2023-11-14T00:09:21.383Z,99.90
2023-11-14T00:11:48.343Z,99.90
2023-11-14T00:14:17.811Z,99.90
2023-11-14T00:16:49.486Z,99.90
2023-11-14T00:19:21.100Z,99.90
2023-11-14T00:21:51.738Z,99.90
2023-11-14T00:24:20.908Z,99.90
2023-11-14T00:26:47.881Z,99.90
2023-11-14T00:29:17.094Z,99.90
2023-11-14T00:31:44.263Z,99.90
2023-11-14T00:34:13.626Z,99.90
2023-11-14T00:36:42.825Z,99.90
2023-11-14T00:39:10.386Z,99.90
2023-11-14T00:41:37.863Z,99.90
2023-11-14T00:44:07.563Z,99.90
2023-11-14T00:46:37.210Z,99.90
2023-11-14T00:49:04.678Z,99.90
2023-11-14T00:51:31.573Z,99.90
2023-11-14T00:53:58.543Z,99.90
2023-11-14T00:56:30.954Z,99.90
2023-11-14T00:58:58.031Z,99.90
2023-11-14T01:01:25.082Z,99.90
2023-11-14T01:03:52.028Z,99.90
2023-11-14T01:06:20.796Z,99.90
2023-11-14T01:08:48.488Z,99.90
2023-11-14T01:11:16.491Z,99.90
2023-11-14T01:13:43.508Z,99.90
2023-11-14T01:16:15.651Z,99.90
2023-11-14T01:18:42.707Z,99.90
2023-11-14T01:21:18.288Z,99.90
2023-11-14T01:23:48.194Z,99.90
2023-11-14T01:26:17.798Z,99.90
2023-11-14T01:28:44.922Z,99.90
2023-11-14T01:31:26.339Z,99.90
2023-11-14T01:33:53.354Z,99.90
2023-11-14T01:36:25.304Z,99.90
2023-11-14T01:38:52.499Z,99.90
2023-11-14T01:41:19.549Z,99.90
2023-11-14T01:43:47.672Z,99.90
2023-11-14T01:46:17.179Z,99.90
2023-11-14T01:48:50.047Z,99.90
2023-11-14T01:51:24.220Z,99.90
2023-11-14T01:53:52.782Z,99.90
2023-11-14T01:56:24.120Z,99.90
2023-11-14T01:58:52.603Z,99.90
2023-11-14T02:01:24.252Z,99.90
2023-11-14T02:03:52.397Z,99.90
2023-11-14T02:06:19.372Z,99.90
2023-11-14T02:08:47.779Z,99.90
2023-11-14T02:11:17.087Z,99.90
2023-11-14T02:13:46.782Z,99.90
2023-11-14T02:16:16.461Z,99.90
2023-11-14T02:18:43.438Z,99.90
2023-11-14T02:21:14.094Z,99.90
2023-11-14T02:23:46.225Z,99.90
2023-11-14T02:26:13.274Z,99.90
2023-11-14T02:28:40.232Z,99.90
2023-11-14T02:31:07.593Z,99.90
2023-11-14T02:33:39.192Z,99.90
2023-11-14T02:36:11.172Z,99.90
2023-11-14T02:38:38.096Z,99.90
2023-11-14T02:41:05.297Z,99.90
2023-11-14T02:43:32.304Z,99.90
2023-11-14T02:46:01.533Z,99.90
2023-11-14T02:48:28.881Z,99.90
2023-11-14T02:50:57.614Z,99.90
2023-11-14T02:53:24.821Z,99.90
2023-11-14T02:55:55.704Z,99.90
2023-11-14T02:58:25.266Z,99.90
2023-11-14T03:00:52.729Z,99.90
2023-11-14T03:03:22.497Z,99.90
2023-11-14T03:05:49.469Z,99.90
2023-11-14T03:08:16.717Z,99.90
2023-11-14T03:10:46.563Z,99.90
2023-11-14T03:13:14.669Z,99.90
2023-11-14T03:15:43.777Z,99.90
2023-11-14T03:18:10.940Z,99.90
2023-11-14T03:20:37.969Z,99.90
2023-11-14T03:23:05.471Z,99.90
2023-11-14T03:25:34.822Z,99.90
2023-11-14T03:28:02.815Z,99.90
2023-11-14T03:30:30.029Z,99.90
2023-11-14T03:33:00.618Z,99.90
2023-11-14T03:35:28.395Z,99.90
2023-11-14T03:37:57.578Z,99.90
2023-11-14T03:40:24.621Z,99.90
2023-11-14T03:42:51.985Z,99.90
2023-11-14T03:45:21.027Z,99.90
2023-11-14T03:47:50.605Z,99.90
2023-11-14T03:50:17.601Z,99.90
2023-11-14T03:52:45.311Z,99.90
2023-11-14T03:55:12.214Z,99.90
2023-11-14T03:57:39.125Z,99.90
2023-11-14T04:00:06.608Z,99.90
2023-11-14T04:02:39.878Z,99.90
2023-11-14T04:05:07.234Z,99.90
2023-11-14T04:07:34.409Z,99.90
2023-11-14T04:10:04.270Z,99.90
2023-11-14T04:12:31.155Z,99.90
2023-11-14T04:14:58.206Z,99.90
2023-11-14T04:17:27.289Z,99.90
2023-11-14T04:19:59.001Z,99.90
2023-11-14T04:22:28.286Z,99.90
2023-11-14T04:24:59.340Z,99.90
2023-11-14T04:27:26.463Z,99.90
2023-11-14T04:29:53.559Z,99.90
2023-11-14T04:32:20.577Z,99.90
2023-11-14T04:34:47.615Z,99.90
2023-11-14T04:37:14.605Z,99.90
2023-11-14T04:39:41.549Z,99.90
2023-11-14T04:42:12.210Z,99.90
2023-11-14T04:44:39.600Z,99.90
2023-11-14T04:47:09.309Z,99.90
2023-11-14T04:49:37.290Z,99.90
2023-11-14T04:52:04.596Z,99.90
2023-11-14T04:54:31.442Z,99.90
2023-11-14T04:56:59.065Z,99.90
2023-11-14T04:59:28.192Z,99.90
2023-11-14T05:01:55.199Z,99.90
2023-11-14T05:04:24.698Z,99.90
2023-11-14T05:06:51.648Z,99.90
2023-11-14T05:09:18.612Z,99.90
2023-11-14T05:11:50.322Z,99.90
2023-11-14T05:14:19.526Z,99.90
2023-11-14T05:16:48.744Z,99.90
2023-11-14T05:19:16.050Z,99.90
2023-11-14T05:21:43.144Z,99.90
2023-11-14T05:24:10.309Z,99.90
2023-11-14T05:26:39.795Z,99.90
2023-11-14T05:29:08.162Z,99.90
2023-11-14T05:31:36.289Z,99.90
2023-11-14T05:34:03.501Z,99.90
2023-11-14T05:36:30.366Z,99.90
2023-11-14T05:39:00.051Z,99.90
2023-11-14T05:41:27.622Z,99.90
2023-11-14T05:43:54.663Z,99.90
2023-11-14T05:46:21.528Z,99.90
2023-11-14T05:48:48.461Z,99.90
2023-11-14T05:51:20.077Z,99.90
2023-11-14T05:53:47.049Z,99.90
2023-11-14T05:56:14.196Z,99.90
2023-11-14T05:58:43.707Z,99.90
2023-11-14T06:01:11.749Z,99.90
2023-11-14T06:03:39.030Z,99.90
2023-11-14T06:06:06.145Z,99.90
2023-11-14T06:08:33.044Z,99.90
2023-11-14T06:11:00.076Z,99.90
2023-11-14T06:13:27.461Z,99.90
2023-11-14T06:15:54.951Z,99.90
2023-11-14T06:18:21.918Z,99.90
2023-11-14T06:20:48.929Z,99.90
2023-11-14T06:23:16.849Z,99.90
2023-11-14T06:25:43.881Z,99.90
2023-11-14T06:28:11.521Z,99.90
2023-11-14T06:30:39.979Z,99.90
2023-11-14T06:33:07.022Z,99.90
2023-11-14T06:35:37.575Z,99.90
2023-11-14T06:38:07.646Z,99.90
2023-11-14T06:40:34.673Z,99.90
2023-11-14T06:43:05.295Z,99.90
2023-11-14T06:45:32.232Z,99.90
2023-11-14T06:47:59.280Z,99.90
2023-11-14T06:50:33.963Z,99.90
2023-11-14T06:53:09.586Z,99.90
2023-11-14T06:55:36.675Z,99.90
2023-11-14T06:58:03.536Z,99.90
2023-11-14T07:00:32.219Z,99.90
2023-11-14T07:03:01.690Z,99.90
2023-11-14T07:05:29.098Z,99.90
2023-11-14T07:07:56.411Z,99.90
2023-11-14T07:10:31.408Z,99.90
2023-11-14T07:13:00.939Z,99.90
2023-11-14T07:15:30.400Z,99.90
2023-11-14T07:17:57.493Z,99.90
2023-11-14T07:20:28.197Z,99.90
2023-11-14T07:22:57.714Z,99.90
2023-11-14T07:25:24.809Z,99.90
2023-11-14T07:27:53.115Z,99.90
2023-11-14T07:30:20.115Z,99.90
2023-11-14T07:32:47.153Z,99.90
2023-11-14T07:35:14.475Z,99.90
2023-11-14T07:37:41.576Z,99.90
2023-11-14T07:40:10.069Z,99.90
2023-11-14T07:42:39.943Z,99.90
2023-11-14T07:45:12.696Z,99.90
2023-11-14T07:47:41.447Z,99.90
2023-11-14T07:50:10.767Z,99.90
2023-11-14T07:52:38.150Z,99.90
2023-11-14T07:55:05.454Z,99.90
2023-11-14T07:57:35.175Z,99.80
2023-11-14T08:00:05.602Z,99.30
2023-11-14T08:02:40.153Z,98.90
2023-11-14T08:05:09.485Z,98.30
2023-11-14T08:07:39.349Z,97.70
2023-11-14T08:10:07.204Z,97.80
2023-11-14T08:12:37.405Z,97.70
2023-11-14T08:15:07.422Z,97.20
2023-11-14T08:17:34.422Z,97.30
2023-11-14T08:20:04.545Z,97.20
2023-11-14T08:22:31.658Z,97.20
2023-11-14T08:25:01.189Z,96.90
2023-11-14T08:27:32.050Z,96.80
2023-11-14T08:30:01.359Z,97.00
2023-11-14T08:32:29.927Z,96.60
2023-11-14T08:34:59.405Z,96.30
2023-11-14T08:37:28.640Z,96.70
2023-11-14T08:39:56.524Z,96.90
2023-11-14T08:42:23.466Z,97.00
2023-11-14T08:44:50.665Z,96.70
2023-11-14T08:47:18.036Z,96.30
2023-11-14T08:49:47.375Z,96.70
2023-11-14T08:52:16.840Z,96.90
2023-11-14T08:54:44.169Z,97.20
2023-11-14T08:57:11.082Z,96.70
2023-11-14T08:59:38.156Z,97.30
2023-11-14T09:02:05.319Z,96.90
2023-11-14T09:04:32.332Z,96.50
2023-11-14T09:06:59.379Z,95.90
2023-11-14T09:09:28.854Z,95.60
2023-11-14T09:11:55.717Z,95.20
2023-11-14T09:14:22.853Z,95.20
2023-11-14T09:16:50.086Z,95.40
2023-11-14T09:19:16.957Z,94.90
2023-11-14T09:21:48.556Z,95.00
2023-11-14T09:24:15.410Z,94.80
2023-11-14T09:26:42.419Z,94.10
2023-11-14T09:29:09.326Z,93.80
2023-11-14T09:31:36.291Z,93.80
2023-11-14T09:34:07.734Z,93.80
2023-11-14T09:36:34.738Z,93.90
2023-11-14T09:39:05.215Z,93.90
2023-11-14T09:41:34.319Z,93.60
2023-11-14T09:44:03.303Z,93.20
2023-11-14T09:46:33.798Z,93.10
2023-11-14T09:49:05.561Z,92.60
2023-11-14T09:51:34.178Z,92.40
2023-11-14T09:54:02.030Z,92.50
2023-11-14T09:56:30.258Z,92.20
2023-11-14T09:59:00.273Z,92.70
2023-11-14T10:01:27.501Z,92.40
2023-11-14T10:03:54.747Z,92.50
2023-11-14T10:06:21.773Z,92.30
2023-11-14T10:08:58.334Z,91.40
2023-11-14T10:12:11.210Z,91.00
2023-11-14T10:14:48.555Z,91.20
2023-11-14T10:17:20.298Z,91.50
2023-11-14T10:20:10.320Z,91.40
2023-11-14T10:22:53.269Z,91.10
2023-11-14T10:25:31.025Z,91.20
2023-11-14T10:28:05.684Z,91.70
2023-11-14T10:30:50.026Z,92.70
2023-11-14T10:33:18.103Z,91.90
2023-11-14T10:35:47.637Z,91.80
2023-11-14T10:38:23.550Z,91.50
2023-11-14T10:40:55.548Z,91.80
2023-11-14T10:43:37.989Z,91.40
2023-11-14T10:46:11.925Z,91.30
2023-11-14T10:48:38.860Z,91.70
2023-11-14T10:51:09.809Z,91.20
2023-11-14T10:53:37.217Z,91.00
2023-11-14T10:56:06.112Z,90.70
2023-11-14T10:58:35.484Z,91.00
2023-11-14T11:01:04.290Z,90.90
2023-11-14T11:03:31.997Z,91.10
2023-11-14T11:06:02.482Z,91.50
2023-11-14T11:08:29.507Z,91.50
2023-11-14T11:10:59.575Z,91.40
2023-11-14T11:13:28.233Z,90.90
2023-11-14T11:15:58.624Z,90.70
2023-11-14T11:18:35.993Z,90.70
2023-11-14T11:21:13.723Z,90.70
2023-11-14T11:24:13.821Z,90.50
2023-11-14T11:27:20.384Z,90.90
2023-11-14T11:29:59.499Z,90.60
2023-11-14T11:32:29.139Z,90.20
2023-11-14T11:35:22.245Z,89.80
2023-11-14T11:37:50.040Z,90.10
2023-11-14T11:40:22.380Z,89.90
2023-11-14T11:42:50.151Z,90.10
2023-11-14T11:45:39.094Z,89.70
2023-11-14T11:48:26.036Z,90.00
2023-11-14T11:50:55.956Z,90.50
2023-11-14T11:53:50.697Z,90.10
2023-11-14T11:56:38.171Z,90.00
2023-11-14T11:59:05.250Z,90.00
2023-11-14T12:01:32.758Z,90.10
2023-11-14T12:04:00.871Z,90.40
2023-11-14T12:06:28.342Z,91.00
2023-11-14T12:08:56.482Z,90.90
2023-11-14T12:11:23.583Z,90.80
2023-11-14T12:13:54.692Z,90.80
2023-11-14T12:16:24.685Z,91.00
2023-11-14T12:18:51.813Z,91.20
2023-11-14T12:21:19.946Z,91.00
2023-11-14T12:23:49.521Z,90.70
2023-11-14T12:26:18.793Z,90.60
2023-11-14T12:28:46.253Z,90.30
2023-11-14T12:31:14.355Z,90.70
2023-11-14T12:33:51.930Z,90.10
2023-11-14T12:36:23.470Z,90.30
2023-11-14T12:38:51.193Z,90.10
2023-11-14T12:41:29.751Z,90.50
2023-11-14T12:44:08.025Z,90.50
2023-11-14T12:46:37.880Z,90.80
2023-11-14T12:49:18.397Z,90.70
2023-11-14T12:51:51.410Z,90.80
2023-11-14T12:54:23.090Z,90.90
2023-11-14T12:56:53.896Z,90.70
2023-11-14T12:59:23.804Z,90.70
2023-11-14T13:01:51.638Z,90.80
2023-11-14T13:04:19.670Z,91.00
2023-11-14T13:06:48.458Z,91.10
2023-11-14T13:09:17.981Z,91.10
2023-11-14T13:11:45.972Z,90.70
2023-11-14T13:14:14.257Z,90.70
2023-11-14T13:16:44.964Z,90.60
2023-11-14T13:19:16.076Z,90.70
2023-11-14T13:21:43.056Z,90.60
2023-11-14T13:24:12.647Z,90.50
2023-11-14T13:26:39.792Z,90.20
2023-11-14T13:29:09.154Z,90.30
2023-11-14T13:31:38.441Z,90.60
2023-11-14T13:34:05.674Z,90.00
2023-11-14T13:36:33.602Z,90.40
2023-11-14T13:39:03.901Z,90.20
2023-11-14T13:41:46.491Z,90.10
2023-11-14T13:44:14.836Z,90.30
2023-11-14T13:46:41.758Z,90.20
2023-11-14T13:49:10.422Z,89.90
2023-11-14T13:51:37.411Z,90.00
2023-11-14T13:54:07.918Z,89.80
2023-11-14T13:56:35.069Z,90.20
2023-11-14T13:59:04.775Z,90.20
2023-11-14T14:01:34.372Z,90.30
2023-11-14T14:04:02.084Z,90.50
2023-11-14T14:06:29.196Z,90.60
2023-11-14T14:08:59.713Z,90.40
2023-11-14T14:11:30.060Z,90.50
2023-11-14T14:13:57.707Z,90.60
2023-11-14T14:16:26.400Z,91.00
2023-11-14T14:18:55.646Z,91.10
2023-11-14T14:21:22.667Z,91.20
2023-11-14T14:23:49.527Z,91.60
2023-11-14T14:26:18.995Z,91.80
2023-11-14T14:28:47.679Z,91.80
2023-11-14T14:31:20.256Z,92.10
2023-11-14T14:33:47.600Z,92.00
2023-11-14T14:36:14.964Z,92.30
2023-11-14T14:38:41.882Z,92.40
2023-11-14T14:41:09.564Z,92.70
2023-11-14T14:43:40.333Z,93.00
2023-11-14T14:46:11.687Z,93.10
2023-11-14T14:48:38.690Z,93.20
2023-11-14T14:51:07.987Z,93.20
2023-11-14T14:53:37.210Z,93.60
2023-11-14T14:56:04.778Z,93.60
2023-11-14T14:58:31.832Z,93.60
2023-11-14T15:01:00.873Z,94.10
2023-11-14T15:03:27.923Z,94.10
2023-11-14T15:06:01.338Z,93.90
2023-11-14T15:08:28.306Z,93.90
2023-11-14T15:10:55.296Z,93.90
2023-11-14T15:13:22.218Z,93.90
2023-11-14T15:15:52.492Z,94.00
2023-11-14T15:18:20.035Z,94.00
2023-11-14T15:20:47.867Z,94.10
2023-11-14T15:23:15.123Z,94.20
2023-11-14T15:25:45.296Z,94.40
2023-11-14T15:28:12.445Z,94.30
2023-11-14T15:30:39.418Z,94.40
2023-11-14T15:33:06.474Z,94.30
2023-11-14T15:35:33.568Z,94.60
2023-11-14T15:38:01.635Z,94.60
2023-11-14T15:40:28.563Z,94.50
2023-11-14T15:43:00.480Z,94.60
2023-11-14T15:45:32.659Z,94.70
2023-11-14T15:47:59.644Z,94.90
2023-11-14T15:50:26.744Z,95.10
2023-11-14T15:52:53.844Z,95.10
2023-11-14T15:55:20.911Z,95.10
2023-11-14T15:57:51.505Z,95.20
2023-11-14T16:00:18.785Z,95.20
2023-11-14T16:02:45.974Z,95.00
2023-11-14T16:05:15.402Z,95.00
2023-11-14T16:07:42.805Z,95.00
2023-11-14T16:10:12.175Z,95.00
2023-11-14T16:12:39.249Z,95.10
2023-11-14T16:15:07.306Z,95.20
2023-11-14T16:17:36.763Z,95.00
2023-11-14T16:20:04.817Z,95.10
2023-11-14T16:22:33.623Z,95.10
2023-11-14T16:25:00.629Z,94.80
2023-11-14T16:27:28.048Z,95.00
2023-11-14T16:29:55.397Z,95.00
2023-11-14T16:32:23.035Z,95.20
2023-11-14T16:34:50.763Z,94.90
2023-11-14T16:37:17.964Z,95.10
2023-11-14T16:39:45.424Z,95.00
2023-11-14T16:42:12.841Z,95.00
2023-11-14T16:44:40.194Z,95.00
2023-11-14T16:47:08.113Z,95.00
2023-11-14T16:49:36.202Z,95.00
2023-11-14T16:52:06.812Z,95.10
2023-11-14T16:54:35.923Z,95.00
2023-11-14T16:57:04.072Z,95.40
2023-11-14T16:59:31.117Z,95.70
2023-11-14T17:01:58.554Z,95.10
2023-11-14T17:04:27.398Z,95.30
2023-11-14T17:06:54.332Z,95.40
2023-11-14T17:09:23.713Z,95.40
2023-11-14T17:11:52.969Z,95.80
2023-11-14T17:14:22.506Z,96.20
2023-11-14T17:16:50.319Z,96.80
2023-11-14T17:19:19.537Z,97.00
2023-11-14T17:21:48.596Z,97.30
2023-11-14T17:24:15.606Z,97.40
2023-11-14T17:26:43.966Z,97.90
2023-11-14T17:29:12.058Z,98.10
2023-11-14T17:31:43.713Z,98.70
2023-11-14T17:34:13.067Z,99.10
2023-11-14T17:36:40.101Z,99.20
2023-11-14T17:39:10.488Z,99.70
2023-11-14T17:41:38.051Z,99.90
2023-11-14T17:44:05.060Z,99.90
2023-11-14T17:46:31.937Z,99.90
2023-11-14T17:48:59.033Z,99.90
2023-11-14T17:51:34.923Z,99.90
2023-11-14T17:54:05.925Z,99.90
2023-11-14T17:56:35.377Z,99.90
2023-11-14T17:59:05.741Z,99.90
2023-11-14T18:01:33.199Z,99.90
2023-11-14T18:04:03.110Z,99.90
2023-11-14T18:06:30.229Z,99.90
2023-11-14T18:08:57.412Z,99.90
2023-11-14T18:11:26.950Z,99.90
2023-11-14T18:13:55.232Z,99.90
2023-11-14T18:16:23.041Z,99.90
2023-11-14T18:18:50.077Z,99.90
2023-11-14T18:21:17.469Z,99.90
2023-11-14T18:23:44.333Z,99.90
2023-11-14T18:26:13.402Z,99.90
2023-11-14T18:28:42.580Z,99.90
2023-11-14T18:31:12.112Z,99.90
2023-11-14T18:33:41.448Z,99.90
2023-11-14T18:36:11.046Z,99.90
2023-11-14T18:38:40.793Z,99.90
2023-11-14T18:41:10.264Z,99.90
2023-11-14T18:43:39.818Z,99.90
2023-11-14T18:46:09.662Z,99.90
2023-11-14T18:48:36.699Z,99.90
2023-11-14T18:51:46.669Z,99.90
2023-11-14T18:54:17.506Z,99.90
2023-11-14T18:56:44.852Z,99.90
2023-11-14T18:59:18.064Z,99.90
2023-11-14T19:01:45.300Z,99.90
2023-11-14T19:04:20.690Z,99.90
2023-11-14T19:06:50.759Z,99.90
2023-11-14T19:09:22.006Z,99.90
2023-11-14T19:11:54.433Z,99.90
2023-11-14T19:14:21.453Z,99.90
2023-11-14T19:16:49.226Z,99.90
2023-11-14T19:19:18.787Z,99.90
2023-11-14T19:21:46.498Z,99.90
2023-11-14T19:24:19.748Z,99.90
2023-11-14T19:26:47.177Z,99.90
2023-11-14T19:29:14.836Z,99.90
2023-11-14T19:31:43.677Z,99.90
2023-11-14T19:34:17.232Z,99.90
2023-11-14T19:36:49.877Z,99.90
2023-11-14T19:39:19.982Z,99.90
2023-11-14T19:41:49.498Z,99.90
2023-11-14T19:44:16.694Z,99.90
2023-11-14T19:46:43.940Z,99.90
2023-11-14T19:49:13.563Z,99.90
2023-11-14T19:51:41.304Z,99.90
2023-11-14T19:54:08.714Z,99.90
2023-11-14T19:56:35.605Z,99.90
2023-11-14T19:59:02.588Z,99.90
2023-11-14T20:01:29.517Z,99.90
2023-11-14T20:03:59.550Z,99.90
2023-11-14T20:06:31.426Z,99.90
2023-11-14T20:08:59.792Z,99.90
2023-11-14T20:11:29.416Z,99.90
2023-11-14T20:13:56.486Z,99.90
2023-11-14T20:16:23.613Z,99.90
2023-11-14T20:18:53.445Z,99.90
2023-11-14T20:21:27.761Z,99.90
2023-11-14T20:23:57.330Z,99.90
2023-11-14T20:26:24.353Z,99.90
2023-11-14T20:28:53.576Z,99.90
2023-11-14T20:31:20.842Z,99.90
2023-11-14T20:33:48.533Z,99.90
2023-11-14T20:36:16.045Z,99.90
2023-11-14T20:38:43.185Z,99.90
2023-11-14T20:41:10.250Z,99.90
2023-11-14T20:43:37.693Z,99.90
2023-11-14T20:46:04.983Z,99.90
2023-11-14T20:48:31.926Z,99.90
2023-11-14T20:51:13.695Z,99.90
2023-11-14T20:53:49.849Z,99.90
2023-11-14T20:56:19.991Z,99.90
2023-11-14T20:58:47.100Z,99.90
2023-11-14T21:01:14.803Z,99.90
2023-11-14T21:03:42.040Z,99.90
2023-11-14T21:06:10.607Z,99.90
2023-11-14T21:08:38.031Z,99.70
2023-11-14T21:11:05.964Z,99.70
2023-11-14T21:13:33.079Z,99.70
2023-11-14T21:16:00.479Z,99.20
2023-11-14T21:18:27.451Z,99.50
2023-11-14T21:20:54.414Z,99.20
2023-11-14T21:23:21.460Z,99.40
2023-11-14T21:25:48.757Z,99.00
2023-11-14T21:28:15.664Z,99.10
2023-11-14T21:30:44.987Z,98.80
2023-11-14T21:33:12.174Z,98.50
2023-11-14T21:35:41.746Z,99.00
2023-11-14T21:38:11.074Z,98.80
2023-11-14T21:40:38.519Z,98.90
2023-11-14T21:43:05.511Z,98.90
2023-11-14T21:45:34.831Z,98.80
2023-11-14T21:48:04.763Z,98.30
2023-11-14T21:50:34.460Z,98.80
2023-11-14T21:53:01.570Z,98.70
2023-11-14T21:55:28.525Z,98.30
2023-11-14T21:57:56.600Z,98.40
2023-11-14T22:00:23.497Z,98.40
2023-11-14T22:02:50.578Z,98.20
2023-11-14T22:05:18.104Z,98.50
2023-11-14T22:07:47.643Z,98.40
2023-11-14T22:10:14.736Z,98.60
2023-11-14T22:12:42.461Z,98.70
2023-11-14T22:15:11.557Z,98.50
2023-11-14T22:17:40.812Z,98.50
2023-11-14T22:20:08.333Z,98.70
2023-11-14T22:22:35.602Z,98.90
2023-11-14T22:25:02.679Z,99.20
2023-11-14T22:27:29.690Z,99.20
2023-11-14T22:29:58.379Z,98.60
2023-11-14T22:32:26.973Z,98.60
2023-11-14T22:35:01.183Z,98.60
2023-11-14T22:37:29.407Z,98.70
2023-11-14T22:39:56.680Z,98.70
2023-11-14T22:42:23.546Z,98.60
2023-11-14T22:44:50.554Z,98.70
2023-11-14T22:47:18.324Z,98.80
2023-11-14T22:49:45.359Z,98.60
2023-11-14T22:52:14.498Z,98.30
2023-11-14T22:54:47.184Z,98.40
2023-11-14T22:57:14.301Z,98.60
2023-11-14T22:59:41.273Z,98.70
2023-11-14T23:02:10.576Z,98.90
2023-11-14T23:04:39.920Z,99.10
2023-11-14T23:07:06.969Z,99.20
2023-11-14T23:09:36.471Z,99.30
2023-11-14T23:12:07.208Z,99.60
2023-11-14T23:14:34.655Z,99.80
2023-11-14T23:17:04.192Z,99.80
2023-11-14T23:19:32.569Z,99.90
2023-11-14T23:22:00.225Z,99.80
2023-11-14T23:24:27.439Z,99.90
2023-11-14T23:26:54.571Z,99.90
2023-11-14T23:29:23.978Z,99.90
2023-11-14T23:31:51.008Z,99.90
2023-11-14T23:34:18.016Z,99.90
2023-11-14T23:36:44.962Z,99.90
2023-11-14T23:39:18.921Z,99.90
2023-11-14T23:41:46.535Z,99.90
2023-11-14T23:44:19.840Z,99.90
2023-11-14T23:46:47.186Z,99.90
2023-11-14T23:49:17.930Z,99.90
2023-11-14T23:51:45.109Z,99.90
2023-11-14T23:54:12.139Z,99.90
2023-11-14T23:56:42.055Z,99.90
2023-11-14T23:59:09.134Z,99.90
